This is the latest recevied weather packets stored in our database for station/object Reichnbch. If no packets are shown the sender has not sent any weather packets the latest 10 day(s).
| Time | Temp. | Humidity | Pressure | Rain* | Wind** | Luminosity | Snow |
|---|---|---|---|---|---|---|---|
| 1778005932 | 13.33° C | 78% | 1008.5 hPa | 4.32 mm | - | - | - |
| 1778004131 | 13.89° C | 78% | 1008.3 hPa | 4.32 mm | - | - | - |
| 1778002330 | 13.89° C | 80% | 1008.6 hPa | 3.56 mm | - | - | - |
| 1778000530 | 14.44° C | 81% | 1008.2 hPa | 3.56 mm | - | - | - |
| 1777998731 | 14.44° C | 81% | 1008.2 hPa | 3.3 mm | - | - | - |
| 1777995130 | 14.44° C | 77% | 1008.2 hPa | 3.3 mm | - | - | - |
| 1777993336 | 13.89° C | 78% | 1008.7 hPa | 3.3 mm | - | - | - |
| 1777991532 | 13.33° C | 78% | 1008.8 hPa | 3.3 mm | - | - | - |
| 1777989730 | 13.33° C | 80% | 1009.2 hPa | 3.05 mm | - | - | - |
| 1777987930 | 13.89° C | 81% | 1009.5 hPa | 1.52 mm | - | - | - |
| 1777986130 | 15° C | 82% | 1009.2 hPa | 0.76 mm | - | - | - |
| 1777984330 | 18.89° C | 70% | 1008.1 hPa | 0 mm | - | - | - |
| 1777982530 | 19.44° C | 67% | 1008.1 hPa | 0 mm | - | - | - |
| 1777980730 | 19.44° C | 72% | 1008 hPa | 0 mm | - | - | - |
| 1777978931 | 19.44° C | 65% | 1008.2 hPa | 0 mm | - | - | - |
| 1777977131 | 19.44° C | 68% | 1008.4 hPa | 0 mm | - | - | - |
| 1777975332 | 20.56° C | 65% | 1008.6 hPa | 0 mm | - | - | - |
| 1777973532 | 19.44° C | 72% | 1008.8 hPa | 0 mm | - | - | - |
| 1777971732 | 17.78° C | 76% | 1009.2 hPa | 0 mm | - | - | - |
| 1777969931 | 16.11° C | 76% | 1009.5 hPa | 0 mm | - | - | - |
| 1777968131 | 15.56° C | 79% | 1009.8 hPa | 0 mm | - | - | - |
| 1777966330 | 15° C | 80% | 1009.9 hPa | 0 mm | - | - | - |
| 1777964532 | 13.89° C | 82% | 1010.2 hPa | 0 mm | - | - | - |
| 1777962731 | 13.33° C | 83% | 1010.3 hPa | 0 mm | - | - | - |
| 1777960932 | 12.22° C | 83% | 1010.4 hPa | 0 mm | - | - | - |
* Rain since midnight (hover to see other rain measurements)
** Current wind speed in m/s (hover to see current wind gust speed)